createdAt,value
2023-04-17T00:01:20.685Z,99.71
2023-04-17T00:03:47.262Z,99.98
2023-04-17T00:06:13.475Z,100.00
2023-04-17T00:08:39.885Z,100.00
2023-04-17T00:11:08.523Z,100.00
2023-04-17T00:13:32.740Z,100.00
2023-04-17T00:15:59.107Z,100.00
2023-04-17T00:18:25.541Z,100.00
2023-04-17T00:20:51.901Z,100.00
2023-04-17T00:23:18.319Z,100.00
2023-04-17T00:25:44.773Z,100.00
2023-04-17T00:28:11.143Z,100.00
2023-04-17T00:30:37.565Z,100.00
2023-04-17T00:33:03.960Z,100.00
2023-04-17T00:35:30.315Z,100.00
2023-04-17T00:37:56.738Z,100.00
2023-04-17T00:40:23.150Z,100.00
2023-04-17T00:42:49.587Z,100.00
2023-04-17T00:45:15.998Z,100.00
2023-04-17T00:47:42.456Z,100.00
2023-04-17T00:50:08.896Z,100.00
2023-04-17T00:52:35.255Z,100.00
2023-04-17T00:55:01.708Z,100.00
2023-04-17T00:57:28.109Z,100.00
2023-04-17T00:59:54.498Z,100.00
2023-04-17T01:02:20.941Z,100.00
2023-04-17T01:04:47.256Z,100.00
2023-04-17T01:07:13.634Z,100.00
2023-04-17T01:09:40.031Z,100.00
2023-04-17T01:12:06.392Z,100.00
2023-04-17T01:14:32.778Z,100.00
2023-04-17T01:16:59.225Z,100.00
2023-04-17T01:19:25.620Z,100.00
2023-04-17T01:21:52.025Z,100.00
2023-04-17T01:24:18.450Z,100.00
2023-04-17T01:26:44.816Z,100.00
2023-04-17T01:29:11.335Z,100.00
2023-04-17T01:31:37.615Z,100.00
2023-04-17T01:34:03.987Z,100.00
2023-04-17T01:36:30.387Z,100.00
2023-04-17T01:38:56.748Z,100.00
2023-04-17T01:41:23.159Z,100.00
2023-04-17T01:43:49.563Z,100.00
2023-04-17T01:46:16.004Z,100.00
2023-04-17T01:48:42.324Z,100.00
2023-04-17T01:51:08.754Z,100.00
2023-04-17T01:53:35.153Z,100.00
2023-04-17T01:56:01.557Z,100.00
2023-04-17T01:58:27.974Z,100.00
2023-04-17T02:00:54.355Z,100.00
2023-04-17T02:03:20.917Z,100.00
2023-04-17T02:05:47.149Z,100.00
2023-04-17T02:08:13.565Z,100.00
2023-04-17T02:10:39.990Z,100.00
2023-04-17T02:13:06.360Z,100.00
2023-04-17T02:15:32.837Z,100.00
2023-04-17T02:17:59.231Z,100.00
2023-04-17T02:20:25.604Z,100.00
2023-04-17T02:22:52.025Z,100.00
2023-04-17T02:25:18.428Z,100.00
2023-04-17T02:27:44.839Z,100.00
2023-04-17T02:30:11.239Z,100.00
2023-04-17T02:32:37.729Z,100.00
2023-04-17T02:35:04.042Z,100.00
2023-04-17T02:37:30.432Z,100.00
2023-04-17T02:39:56.803Z,100.00
2023-04-17T02:42:23.192Z,100.00
2023-04-17T02:44:49.570Z,100.00
2023-04-17T02:47:15.990Z,100.00
2023-04-17T02:49:42.419Z,100.00
2023-04-17T02:52:08.826Z,100.00
2023-04-17T02:54:35.235Z,100.00
2023-04-17T02:57:01.670Z,100.00
2023-04-17T02:59:28.035Z,100.00
2023-04-17T03:01:54.535Z,100.00
2023-04-17T03:04:20.988Z,100.00
2023-04-17T03:06:47.325Z,100.00
2023-04-17T03:09:13.884Z,100.00
2023-04-17T03:11:40.189Z,100.00
2023-04-17T03:14:06.551Z,100.00
2023-04-17T03:16:32.992Z,100.00
2023-04-17T03:18:59.339Z,100.00
2023-04-17T03:21:25.772Z,100.00
2023-04-17T03:23:52.132Z,100.00
2023-04-17T03:26:18.603Z,100.00
2023-04-17T03:28:44.958Z,100.00
2023-04-17T03:31:11.381Z,100.00
2023-04-17T03:33:37.740Z,100.00
2023-04-17T03:36:04.116Z,100.00
2023-04-17T03:38:30.547Z,100.00
2023-04-17T03:40:56.955Z,100.00
2023-04-17T03:43:23.334Z,100.00
2023-04-17T03:45:49.813Z,100.00
2023-04-17T03:48:16.169Z,100.00
2023-04-17T03:50:42.577Z,100.00
2023-04-17T03:53:09.023Z,100.00
2023-04-17T03:55:35.410Z,99.81
2023-04-17T03:58:01.819Z,99.53
2023-04-17T04:00:28.234Z,99.17
2023-04-17T04:02:54.733Z,98.69
2023-04-17T04:05:21.076Z,97.67
2023-04-17T04:07:47.421Z,97.54
2023-04-17T04:10:13.823Z,97.58
2023-04-17T04:12:40.197Z,97.61
2023-04-17T04:15:06.572Z,97.72
2023-04-17T04:17:32.956Z,98.40
2023-04-17T04:19:59.379Z,98.50
2023-04-17T04:22:25.764Z,98.88
2023-04-17T04:24:52.181Z,98.87
2023-04-17T04:27:18.576Z,99.00
2023-04-17T04:29:44.941Z,98.87
2023-04-17T04:32:11.368Z,98.61
2023-04-17T04:34:37.847Z,98.53
2023-04-17T04:37:04.207Z,98.52
2023-04-17T04:39:30.633Z,98.55
2023-04-17T04:41:57.052Z,98.79
2023-04-17T04:44:23.486Z,98.62
2023-04-17T04:46:50.067Z,98.21
2023-04-17T04:49:16.362Z,98.09
2023-04-17T04:51:42.773Z,97.95
2023-04-17T04:54:09.140Z,98.22
2023-04-17T04:56:35.558Z,98.20
2023-04-17T04:59:01.946Z,98.01
2023-04-17T05:01:28.425Z,97.81
2023-04-17T05:03:54.979Z,97.57
2023-04-17T05:06:21.322Z,97.23
2023-04-17T05:08:47.731Z,96.96
2023-04-17T05:11:14.101Z,96.42
2023-04-17T05:13:40.470Z,96.27
2023-04-17T05:16:06.917Z,95.70
2023-04-17T05:18:33.254Z,95.44
2023-04-17T05:20:59.640Z,95.27
2023-04-17T05:23:26.053Z,94.96
2023-04-17T05:25:52.469Z,94.42
2023-04-17T05:28:18.848Z,94.12
2023-04-17T05:30:45.304Z,93.91
2023-04-17T05:33:11.767Z,93.75
2023-04-17T05:35:38.107Z,93.44
2023-04-17T05:38:04.586Z,93.26
2023-04-17T05:40:31.007Z,93.05
2023-04-17T05:42:57.384Z,92.61
2023-04-17T05:45:25.517Z,91.55
2023-04-17T05:47:50.431Z,90.84
2023-04-17T05:50:16.807Z,89.87
2023-04-17T05:52:43.235Z,89.62
2023-04-17T05:55:09.647Z,89.30
2023-04-17T05:57:36.090Z,89.22
2023-04-17T06:00:02.467Z,88.81
2023-04-17T06:02:28.995Z,88.24
2023-04-17T06:04:55.447Z,87.53
2023-04-17T06:07:21.762Z,87.22
2023-04-17T06:09:48.134Z,86.40
2023-04-17T06:12:14.549Z,86.20
2023-04-17T06:14:40.928Z,85.55
2023-04-17T06:17:07.428Z,86.37
2023-04-17T06:19:33.752Z,86.10
2023-04-17T06:22:00.190Z,86.21
2023-04-17T06:24:26.611Z,86.61
2023-04-17T06:26:59.377Z,86.60
2023-04-17T06:29:26.957Z,87.02
2023-04-17T06:31:54.637Z,87.68
2023-04-17T06:34:21.064Z,87.83
2023-04-17T06:36:47.422Z,87.40
2023-04-17T06:39:16.471Z,87.51
2023-04-17T06:41:45.221Z,87.63
2023-04-17T06:44:11.605Z,87.31
2023-04-17T06:46:38.111Z,87.06
2023-04-17T06:49:04.496Z,86.94
2023-04-17T06:51:31.062Z,86.91
2023-04-17T06:53:57.526Z,86.65
2023-04-17T06:56:24.064Z,85.98
2023-04-17T06:58:50.470Z,84.63
2023-04-17T07:01:16.868Z,83.80
2023-04-17T07:03:43.616Z,83.49
2023-04-17T07:06:09.815Z,82.75
2023-04-17T07:08:36.172Z,82.48
2023-04-17T07:11:02.554Z,81.82
2023-04-17T07:13:28.960Z,80.65
2023-04-17T07:15:55.466Z,79.14
2023-04-17T07:18:21.874Z,79.87
2023-04-17T07:20:48.307Z,79.65
2023-04-17T07:23:14.743Z,78.88
2023-04-17T07:25:41.091Z,79.12
2023-04-17T07:28:07.612Z,77.88
2023-04-17T07:30:33.987Z,77.69
2023-04-17T07:33:00.402Z,77.87
2023-04-17T07:35:26.865Z,77.09
2023-04-17T07:37:53.283Z,76.84
2023-04-17T07:40:19.692Z,77.06
2023-04-17T07:42:46.184Z,76.19
2023-04-17T07:45:12.561Z,75.79
2023-04-17T07:47:41.157Z,75.42
2023-04-17T07:50:07.569Z,76.22
2023-04-17T07:52:33.966Z,76.50
2023-04-17T07:55:00.342Z,76.75
2023-04-17T07:57:26.838Z,77.88
2023-04-17T07:59:53.225Z,78.03
2023-04-17T08:02:20.691Z,76.93
2023-04-17T08:04:46.126Z,76.88
2023-04-17T08:07:12.392Z,76.32
2023-04-17T08:09:39.112Z,76.15
2023-04-17T08:12:05.539Z,76.75
2023-04-17T08:14:32.261Z,75.46
2023-04-17T08:16:58.700Z,75.80
2023-04-17T08:19:25.083Z,75.36
2023-04-17T08:21:51.505Z,74.79
2023-04-17T08:24:19.793Z,75.65
2023-04-17T08:26:44.362Z,75.40
2023-04-17T08:29:10.986Z,75.26
2023-04-17T08:31:37.175Z,77.19
2023-04-17T08:34:13.635Z,76.23
2023-04-17T08:36:32.927Z,77.09
2023-04-17T08:38:59.374Z,77.62
2023-04-17T08:41:25.742Z,77.89
2023-04-17T08:43:52.120Z,78.07
2023-04-17T08:46:18.685Z,77.18
2023-04-17T08:48:45.037Z,77.18
2023-04-17T08:51:11.470Z,76.39
2023-04-17T08:53:38.046Z,77.69
2023-04-17T08:56:06.255Z,76.93
2023-04-17T08:58:31.023Z,76.09
2023-04-17T09:00:57.468Z,76.80
2023-04-17T09:03:24.371Z,75.16
2023-04-17T09:05:50.491Z,74.04
2023-04-17T09:08:16.882Z,74.42
2023-04-17T09:10:43.349Z,73.27
2023-04-17T09:13:09.985Z,72.69
2023-04-17T09:15:36.517Z,73.74
2023-04-17T09:18:02.807Z,73.15
2023-04-17T09:20:29.400Z,72.94
2023-04-17T09:22:55.956Z,70.33
2023-04-17T09:25:22.367Z,70.78
2023-04-17T09:27:48.744Z,71.54
2023-04-17T09:30:15.237Z,72.31
2023-04-17T09:32:41.614Z,74.27
2023-04-17T09:35:07.958Z,78.22
2023-04-17T09:37:35.440Z,82.19
2023-04-17T09:40:01.889Z,84.06
2023-04-17T09:42:28.474Z,83.53
2023-04-17T09:44:54.839Z,81.92
2023-04-17T09:47:21.311Z,82.75
2023-04-17T09:49:49.830Z,83.06
2023-04-17T09:52:16.314Z,81.77
2023-04-17T09:54:42.711Z,79.82
2023-04-17T09:57:09.173Z,79.32
2023-04-17T09:59:35.813Z,78.40
2023-04-17T10:02:02.373Z,75.43
2023-04-17T10:04:28.638Z,76.19
2023-04-17T10:06:54.970Z,72.43
2023-04-17T10:09:21.816Z,71.65
2023-04-17T10:11:48.284Z,73.07
2023-04-17T10:14:14.970Z,73.81
2023-04-17T10:16:43.578Z,71.03
2023-04-17T10:19:09.860Z,70.20
2023-04-17T10:21:36.229Z,68.69
2023-04-17T10:24:03.108Z,68.43
2023-04-17T10:26:29.698Z,68.11
2023-04-17T10:28:56.156Z,69.59
2023-04-17T10:31:22.734Z,66.74
2023-04-17T10:33:49.090Z,67.60
2023-04-17T10:36:15.803Z,68.98
2023-04-17T10:38:43.345Z,68.36
2023-04-17T10:41:09.814Z,66.23
2023-04-17T10:43:36.546Z,65.41
2023-04-17T10:46:03.017Z,62.18
2023-04-17T10:48:29.631Z,62.38
2023-04-17T10:50:56.057Z,64.20
2023-04-17T10:53:22.560Z,66.47
2023-04-17T10:55:48.938Z,67.35
2023-04-17T10:58:15.560Z,65.16
2023-04-17T11:00:41.964Z,65.03
2023-04-17T11:03:08.655Z,62.50
2023-04-17T11:05:34.955Z,62.35
2023-04-17T11:08:01.697Z,63.40
2023-04-17T11:10:28.189Z,63.99
2023-04-17T11:12:54.660Z,64.31
2023-04-17T11:15:21.062Z,64.91
2023-04-17T11:17:47.648Z,65.26
2023-04-17T11:20:13.964Z,65.60
2023-04-17T11:22:40.476Z,65.51
2023-04-17T11:25:06.886Z,64.77
2023-04-17T11:27:33.234Z,64.15
2023-04-17T11:29:59.604Z,64.25
2023-04-17T11:32:26.008Z,62.45
2023-04-17T11:34:52.403Z,62.52
2023-04-17T11:37:18.969Z,62.85
2023-04-17T11:39:45.526Z,62.74
2023-04-17T11:42:11.911Z,60.56
2023-04-17T11:44:38.266Z,61.81
2023-04-17T11:47:04.652Z,62.41
2023-04-17T11:49:31.060Z,63.79
2023-04-17T11:52:00.561Z,64.32
2023-04-17T11:54:27.100Z,64.38
2023-04-17T11:56:53.803Z,63.04
2023-04-17T11:59:20.195Z,63.37
2023-04-17T12:01:46.617Z,62.96
2023-04-17T12:04:13.272Z,63.37
2023-04-17T12:06:39.522Z,62.25
2023-04-17T12:09:05.919Z,60.74
2023-04-17T12:11:32.281Z,59.67
2023-04-17T12:13:58.716Z,58.24
2023-04-17T12:16:25.177Z,58.35
2023-04-17T12:18:51.481Z,58.34
2023-04-17T12:21:17.958Z,57.42
2023-04-17T12:23:44.309Z,57.13
2023-04-17T12:26:10.711Z,56.54
2023-04-17T12:28:37.135Z,56.32
2023-04-17T12:31:03.527Z,57.10
2023-04-17T12:33:29.885Z,58.27
2023-04-17T12:35:56.287Z,62.10
2023-04-17T12:38:22.704Z,63.29
2023-04-17T12:40:49.116Z,64.14
2023-04-17T12:43:15.548Z,64.54
2023-04-17T12:45:42.536Z,65.41
2023-04-17T12:48:08.323Z,63.82
2023-04-17T12:50:36.899Z,63.80
2023-04-17T12:53:03.310Z,63.54
2023-04-17T12:55:29.714Z,64.50
2023-04-17T12:57:56.086Z,65.37
2023-04-17T13:00:22.458Z,66.22
2023-04-17T13:02:49.027Z,66.61
2023-04-17T13:05:15.293Z,66.77
2023-04-17T13:07:41.715Z,68.08
2023-04-17T13:10:08.135Z,67.82
2023-04-17T13:12:34.799Z,67.81
2023-04-17T13:15:01.219Z,67.70
2023-04-17T13:17:27.680Z,67.46
2023-04-17T13:19:54.122Z,67.69
2023-04-17T13:22:20.542Z,66.86
2023-04-17T13:24:47.051Z,67.12
2023-04-17T13:27:13.482Z,66.14
2023-04-17T13:29:40.007Z,65.56
2023-04-17T13:32:06.452Z,65.90
2023-04-17T13:34:32.821Z,65.25
2023-04-17T13:36:59.249Z,65.44
2023-04-17T13:39:25.765Z,65.70
2023-04-17T13:41:52.128Z,65.77
2023-04-17T13:44:18.556Z,65.47
2023-04-17T13:46:45.311Z,65.10
2023-04-17T13:49:11.938Z,66.14
2023-04-17T13:51:37.977Z,66.17
2023-04-17T13:54:04.413Z,66.40
2023-04-17T13:56:31.246Z,66.28
2023-04-17T13:58:57.684Z,66.34
2023-04-17T14:01:24.065Z,65.81
2023-04-17T14:03:50.579Z,65.17
2023-04-17T14:06:16.921Z,65.34
2023-04-17T14:08:44.361Z,64.12
2023-04-17T14:11:09.714Z,63.69
2023-04-17T14:13:36.142Z,61.84
2023-04-17T14:16:02.647Z,61.98
2023-04-17T14:18:29.048Z,62.18
2023-04-17T14:20:55.546Z,60.85
2023-04-17T14:23:21.986Z,60.30
2023-04-17T14:25:48.421Z,60.29
2023-04-17T14:28:14.905Z,60.54
2023-04-17T14:30:41.371Z,60.78
2023-04-17T14:33:07.760Z,61.21
2023-04-17T14:35:34.281Z,60.53
2023-04-17T14:38:00.807Z,60.76
2023-04-17T14:40:27.259Z,60.23
2023-04-17T14:42:54.832Z,60.44
2023-04-17T14:45:20.164Z,61.27
2023-04-17T14:47:46.658Z,61.80
2023-04-17T14:50:12.988Z,62.44
2023-04-17T14:52:40.376Z,62.57
2023-04-17T14:55:06.803Z,62.57
2023-04-17T14:57:33.651Z,62.13
2023-04-17T15:00:00.405Z,62.33
2023-04-17T15:02:26.712Z,62.42
2023-04-17T15:04:52.985Z,62.25
2023-04-17T15:07:21.683Z,62.35
2023-04-17T15:09:48.107Z,62.95
2023-04-17T15:12:16.933Z,63.29
2023-04-17T15:14:43.317Z,62.97
2023-04-17T15:17:09.757Z,62.94
2023-04-17T15:19:36.683Z,63.01
2023-04-17T15:22:03.181Z,63.26
2023-04-17T15:24:29.497Z,62.77
2023-04-17T15:26:55.908Z,63.07
2023-04-17T15:29:22.454Z,63.43
2023-04-17T15:31:48.915Z,63.96
2023-04-17T15:34:15.263Z,63.72
2023-04-17T15:36:41.688Z,63.82
2023-04-17T15:39:08.115Z,64.15
2023-04-17T15:41:34.467Z,63.99
2023-04-17T15:44:00.937Z,63.51
2023-04-17T15:46:27.408Z,63.89
2023-04-17T15:49:07.468Z,63.58
2023-04-17T15:51:20.660Z,63.83
2023-04-17T15:53:47.038Z,64.02
2023-04-17T15:56:13.426Z,64.51
2023-04-17T15:58:40.013Z,64.52
2023-04-17T16:01:06.462Z,65.09
2023-04-17T16:03:32.913Z,65.87
2023-04-17T16:05:59.364Z,66.53
2023-04-17T16:08:25.778Z,67.40
2023-04-17T16:10:52.185Z,67.71
2023-04-17T16:13:18.753Z,68.39
2023-04-17T16:15:45.242Z,68.73
2023-04-17T16:18:13.716Z,68.64
2023-04-17T16:20:40.092Z,68.78
2023-04-17T16:23:06.460Z,68.66
2023-04-17T16:25:33.393Z,68.03
2023-04-17T16:27:59.734Z,68.27
2023-04-17T16:30:26.168Z,68.01
2023-04-17T16:32:52.661Z,68.20
2023-04-17T16:35:18.964Z,68.40
2023-04-17T16:37:45.409Z,68.53
2023-04-17T16:40:11.791Z,68.54
2023-04-17T16:42:38.154Z,68.74
2023-04-17T16:45:04.526Z,68.89
2023-04-17T16:47:31.131Z,69.22
2023-04-17T16:49:57.455Z,69.42
2023-04-17T16:52:24.594Z,69.52
2023-04-17T16:54:51.067Z,69.69
2023-04-17T16:57:17.464Z,69.98
2023-04-17T16:59:43.840Z,69.79
2023-04-17T17:02:10.487Z,70.03
2023-04-17T17:04:36.850Z,70.20
2023-04-17T17:07:03.279Z,70.76
2023-04-17T17:09:29.653Z,71.62
2023-04-17T17:11:56.071Z,72.81
2023-04-17T17:14:22.566Z,73.44
2023-04-17T17:16:49.207Z,74.37
2023-04-17T17:19:15.568Z,74.83
2023-04-17T17:21:42.035Z,75.53
2023-04-17T17:24:08.397Z,75.86
2023-04-17T17:26:34.904Z,76.15
2023-04-17T17:29:01.325Z,76.53
2023-04-17T17:31:27.776Z,76.59
2023-04-17T17:33:54.119Z,76.32
2023-04-17T17:36:20.579Z,76.53
2023-04-17T17:38:46.887Z,76.96
2023-04-17T17:41:13.332Z,77.46
2023-04-17T17:43:39.748Z,77.37
2023-04-17T17:46:06.240Z,77.78
2023-04-17T17:48:32.594Z,77.81
2023-04-17T17:50:58.973Z,77.71
2023-04-17T17:53:27.129Z,77.61
2023-04-17T17:55:51.927Z,78.00
2023-04-17T17:58:18.416Z,78.05
2023-04-17T18:00:44.884Z,78.03
2023-04-17T18:03:11.740Z,78.10
2023-04-17T18:05:38.202Z,78.17
2023-04-17T18:08:04.607Z,78.38
2023-04-17T18:10:30.952Z,78.66
2023-04-17T18:12:57.491Z,78.88
2023-04-17T18:15:23.912Z,79.14
2023-04-17T18:17:50.323Z,79.04
2023-04-17T18:20:16.760Z,78.90
2023-04-17T18:22:43.116Z,78.52
2023-04-17T18:25:09.513Z,78.07
2023-04-17T18:27:35.918Z,77.03
2023-04-17T18:30:02.335Z,76.82
2023-04-17T18:32:28.816Z,76.26
2023-04-17T18:34:55.228Z,76.18
2023-04-17T18:37:21.590Z,76.28
2023-04-17T18:39:48.496Z,76.43
2023-04-17T18:42:14.914Z,76.30
2023-04-17T18:44:41.318Z,76.63
2023-04-17T18:47:07.808Z,76.86
2023-04-17T18:49:34.228Z,77.13
2023-04-17T18:52:02.420Z,77.18
2023-04-17T18:54:28.839Z,77.50
2023-04-17T18:56:55.223Z,77.65
2023-04-17T18:59:21.913Z,77.53
2023-04-17T19:01:48.269Z,77.29
2023-04-17T19:04:14.891Z,77.41
2023-04-17T19:06:41.158Z,77.35
2023-04-17T19:09:07.534Z,77.23
2023-04-17T19:11:33.897Z,77.13
2023-04-17T19:14:00.327Z,77.21
2023-04-17T19:16:26.783Z,77.38
2023-04-17T19:18:53.139Z,77.40
2023-04-17T19:21:19.878Z,77.56
2023-04-17T19:23:46.320Z,77.66
2023-04-17T19:26:12.739Z,78.01
2023-04-17T19:28:39.164Z,77.96
2023-04-17T19:31:08.021Z,77.94
2023-04-17T19:33:35.448Z,77.94
2023-04-17T19:36:01.810Z,78.17
2023-04-17T19:38:28.220Z,78.31
2023-04-17T19:40:54.615Z,78.04
2023-04-17T19:43:21.142Z,78.39
2023-04-17T19:45:47.506Z,78.53
2023-04-17T19:48:13.831Z,78.42
2023-04-17T19:50:40.274Z,78.52
2023-04-17T19:53:06.645Z,78.55
2023-04-17T19:55:33.068Z,78.87
2023-04-17T19:57:59.457Z,79.00
2023-04-17T20:00:25.828Z,79.36
2023-04-17T20:02:52.330Z,79.40
2023-04-17T20:05:18.657Z,79.57
2023-04-17T20:07:45.074Z,79.87
2023-04-17T20:10:11.456Z,80.05
2023-04-17T20:12:38.852Z,80.23
2023-04-17T20:15:05.226Z,80.21
2023-04-17T20:17:31.633Z,81.25
2023-04-17T20:19:57.986Z,82.47
2023-04-17T20:22:24.358Z,82.85
2023-04-17T20:24:50.830Z,83.59
2023-04-17T20:27:17.194Z,85.18
2023-04-17T20:29:43.526Z,85.61
2023-04-17T20:32:09.935Z,86.02
2023-04-17T20:34:36.333Z,86.04
2023-04-17T20:37:02.714Z,86.11
2023-04-17T20:39:29.102Z,86.33
2023-04-17T20:41:55.495Z,86.63
2023-04-17T20:44:21.999Z,87.16
2023-04-17T20:46:48.429Z,87.37
2023-04-17T20:49:14.860Z,87.67
2023-04-17T20:51:41.193Z,88.06
2023-04-17T20:54:07.556Z,88.57
2023-04-17T20:56:33.929Z,88.96
2023-04-17T20:59:00.362Z,89.39
2023-04-17T21:01:26.805Z,89.62
2023-04-17T21:03:53.291Z,89.71
2023-04-17T21:06:19.585Z,89.90
2023-04-17T21:08:45.976Z,89.89
2023-04-17T21:11:12.366Z,89.51
2023-04-17T21:13:39.006Z,89.25
2023-04-17T21:16:05.463Z,89.01
2023-04-17T21:18:33.321Z,88.75
2023-04-17T21:20:59.844Z,88.47
2023-04-17T21:23:26.216Z,88.47
2023-04-17T21:25:52.649Z,88.41
2023-04-17T21:28:19.043Z,88.29
2023-04-17T21:30:45.414Z,88.22
2023-04-17T21:33:11.831Z,88.23
2023-04-17T21:35:38.240Z,88.33
2023-04-17T21:38:04.652Z,88.44
2023-04-17T21:40:33.494Z,88.52
2023-04-17T21:42:58.496Z,88.79
2023-04-17T21:45:25.014Z,88.52
2023-04-17T21:47:51.394Z,88.32
2023-04-17T21:50:17.775Z,88.09
2023-04-17T21:52:44.325Z,88.22
2023-04-17T21:55:10.734Z,88.56
2023-04-17T21:57:37.098Z,88.67
2023-04-17T22:00:03.473Z,89.10
2023-04-17T22:02:29.908Z,89.34
2023-04-17T22:04:56.356Z,89.39
2023-04-17T22:07:23.000Z,89.43
2023-04-17T22:09:49.411Z,89.37
2023-04-17T22:12:15.817Z,89.49
2023-04-17T22:14:42.240Z,89.58
2023-04-17T22:17:08.629Z,89.56
2023-04-17T22:19:36.567Z,89.53
2023-04-17T22:22:02.981Z,89.71
2023-04-17T22:24:29.405Z,89.71
2023-04-17T22:26:55.757Z,89.83
2023-04-17T22:29:22.171Z,90.03
2023-04-17T22:31:48.536Z,90.16
2023-04-17T22:34:15.131Z,90.24
2023-04-17T22:36:41.399Z,90.14
2023-04-17T22:39:07.767Z,90.07
2023-04-17T22:41:34.134Z,90.36
2023-04-17T22:44:00.511Z,90.54
2023-04-17T22:46:26.911Z,90.76
2023-04-17T22:48:53.252Z,90.90
2023-04-17T22:51:19.613Z,91.11
2023-04-17T22:53:46.012Z,91.18
2023-04-17T22:56:12.422Z,91.32
2023-04-17T22:58:38.839Z,91.56
2023-04-17T23:01:05.252Z,91.65
2023-04-17T23:03:31.634Z,91.83
2023-04-17T23:05:58.009Z,92.17
2023-04-17T23:08:24.480Z,92.32
2023-04-17T23:10:50.886Z,92.57
2023-04-17T23:13:17.325Z,92.70
2023-04-17T23:15:43.808Z,92.77
2023-04-17T23:18:10.198Z,92.52
2023-04-17T23:20:36.528Z,92.54
2023-04-17T23:23:03.014Z,92.56
2023-04-17T23:25:29.406Z,92.30
2023-04-17T23:27:55.772Z,92.20
2023-04-17T23:30:22.188Z,91.91
2023-04-17T23:32:48.720Z,92.08
2023-04-17T23:35:15.051Z,92.26
2023-04-17T23:37:41.484Z,92.25
2023-04-17T23:40:07.915Z,92.55
2023-04-17T23:42:34.300Z,92.96
2023-04-17T23:45:00.657Z,93.37
2023-04-17T23:47:27.107Z,93.82
2023-04-17T23:49:55.725Z,94.70
2023-04-17T23:52:22.142Z,94.83
2023-04-17T23:54:49.627Z,95.37
2023-04-17T23:57:16.052Z,96.07
2023-04-17T23:59:42.412Z,96.88
